sensor_id;sensor_type;location;lat;lon;timestamp;P1;durP1;ratioP1;P2;durP2;ratioP2
11996;SDS011;6058;48.704;9.474;2023-07-20T00:00:59;4.68;;;1.02;;
11996;SDS011;6058;48.704;9.474;2023-07-20T00:03:26;3.90;;;1.35;;
11996;SDS011;6058;48.704;9.474;2023-07-20T00:05:54;1.38;;;1.27;;
11996;SDS011;6058;48.704;9.474;2023-07-20T00:08:21;1.48;;;1.23;;
11996;SDS011;6058;48.704;9.474;2023-07-20T00:10:49;3.92;;;1.35;;
11996;SDS011;6058;48.704;9.474;2023-07-20T00:13:16;1.85;;;1.50;;
11996;SDS011;6058;48.704;9.474;2023-07-20T00:15:44;1.85;;;1.30;;
11996;SDS011;6058;48.704;9.474;2023-07-20T00:18:11;1.90;;;1.70;;
11996;SDS011;6058;48.704;9.474;2023-07-20T00:20:38;1.50;;;1.40;;
11996;SDS011;6058;48.704;9.474;2023-07-20T00:23:07;1.50;;;1.40;;
11996;SDS011;6058;48.704;9.474;2023-07-20T00:25:34;1.98;;;1.42;;
11996;SDS011;6058;48.704;9.474;2023-07-20T00:28:01;2.13;;;1.40;;
11996;SDS011;6058;48.704;9.474;2023-07-20T00:30:28;1.63;;;1.52;;
11996;SDS011;6058;48.704;9.474;2023-07-20T00:32:57;1.48;;;1.38;;
11996;SDS011;6058;48.704;9.474;2023-07-20T00:35:24;2.00;;;1.48;;
11996;SDS011;6058;48.704;9.474;2023-07-20T00:37:51;2.33;;;1.30;;
11996;SDS011;6058;48.704;9.474;2023-07-20T00:40:19;3.22;;;1.40;;
11996;SDS011;6058;48.704;9.474;2023-07-20T00:42:46;2.33;;;1.42;;
11996;SDS011;6058;48.704;9.474;2023-07-20T00:45:14;2.25;;;1.50;;
11996;SDS011;6058;48.704;9.474;2023-07-20T00:47:41;1.50;;;1.40;;
11996;SDS011;6058;48.704;9.474;2023-07-20T00:50:08;2.42;;;1.70;;
11996;SDS011;6058;48.704;9.474;2023-07-20T00:52:36;2.25;;;1.55;;
11996;SDS011;6058;48.704;9.474;2023-07-20T00:55:05;2.25;;;1.27;;
11996;SDS011;6058;48.704;9.474;2023-07-20T00:57:41;1.42;;;1.30;;
11996;SDS011;6058;48.704;9.474;2023-07-20T01:00:09;2.42;;;1.20;;
11996;SDS011;6058;48.704;9.474;2023-07-20T01:02:37;1.95;;;1.55;;
11996;SDS011;6058;48.704;9.474;2023-07-20T01:05:04;1.85;;;1.50;;
11996;SDS011;6058;48.704;9.474;2023-07-20T01:07:32;2.03;;;1.48;;
11996;SDS011;6058;48.704;9.474;2023-07-20T01:10:01;2.03;;;1.60;;
11996;SDS011;6058;48.704;9.474;2023-07-20T01:12:30;1.85;;;1.40;;
11996;SDS011;6058;48.704;9.474;2023-07-20T01:15:01;1.88;;;1.38;;
11996;SDS011;6058;48.704;9.474;2023-07-20T01:17:28;2.90;;;1.30;;
11996;SDS011;6058;48.704;9.474;2023-07-20T01:19:55;1.70;;;1.38;;
11996;SDS011;6058;48.704;9.474;2023-07-20T01:22:28;1.58;;;1.23;;
11996;SDS011;6058;48.704;9.474;2023-07-20T01:25:11;2.38;;;1.67;;
11996;SDS011;6058;48.704;9.474;2023-07-20T01:28:09;2.08;;;1.30;;
11996;SDS011;6058;48.704;9.474;2023-07-20T01:30:45;1.65;;;1.42;;
11996;SDS011;6058;48.704;9.474;2023-07-20T01:33:15;1.95;;;1.50;;
11996;SDS011;6058;48.704;9.474;2023-07-20T01:35:43;2.38;;;1.33;;
11996;SDS011;6058;48.704;9.474;2023-07-20T01:38:12;5.10;;;1.30;;
11996;SDS011;6058;48.704;9.474;2023-07-20T01:40:39;1.30;;;1.20;;
11996;SDS011;6058;48.704;9.474;2023-07-20T01:43:07;3.00;;;1.60;;
11996;SDS011;6058;48.704;9.474;2023-07-20T01:45:34;3.00;;;1.47;;
11996;SDS011;6058;48.704;9.474;2023-07-20T01:48:01;4.68;;;1.42;;
11996;SDS011;6058;48.704;9.474;2023-07-20T01:50:30;2.25;;;1.40;;
11996;SDS011;6058;48.704;9.474;2023-07-20T01:52:59;1.88;;;1.50;;
11996;SDS011;6058;48.704;9.474;2023-07-20T01:55:26;2.78;;;1.98;;
11996;SDS011;6058;48.704;9.474;2023-07-20T01:57:54;1.80;;;1.50;;
11996;SDS011;6058;48.704;9.474;2023-07-20T02:00:21;3.92;;;1.80;;
11996;SDS011;6058;48.704;9.474;2023-07-20T02:02:49;2.85;;;1.50;;
11996;SDS011;6058;48.704;9.474;2023-07-20T02:05:16;1.60;;;1.50;;
11996;SDS011;6058;48.704;9.474;2023-07-20T02:07:45;1.50;;;1.40;;
11996;SDS011;6058;48.704;9.474;2023-07-20T02:10:12;1.52;;;1.42;;
11996;SDS011;6058;48.704;9.474;2023-07-20T02:12:39;1.63;;;1.52;;
11996;SDS011;6058;48.704;9.474;2023-07-20T02:15:07;1.77;;;1.30;;
11996;SDS011;6058;48.704;9.474;2023-07-20T02:17:34;2.78;;;1.40;;
11996;SDS011;6058;48.704;9.474;2023-07-20T02:20:02;3.57;;;1.40;;
11996;SDS011;6058;48.704;9.474;2023-07-20T02:22:29;3.17;;;1.90;;
11996;SDS011;6058;48.704;9.474;2023-07-20T02:24:58;3.25;;;1.70;;
11996;SDS011;6058;48.704;9.474;2023-07-20T02:27:25;2.85;;;1.45;;
11996;SDS011;6058;48.704;9.474;2023-07-20T02:29:52;1.70;;;1.38;;
11996;SDS011;6058;48.704;9.474;2023-07-20T02:32:19;2.90;;;1.70;;
11996;SDS011;6058;48.704;9.474;2023-07-20T02:34:46;2.15;;;1.60;;
11996;SDS011;6058;48.704;9.474;2023-07-20T02:37:13;2.83;;;1.30;;
11996;SDS011;6058;48.704;9.474;2023-07-20T02:39:40;8.73;;;2.30;;
11996;SDS011;6058;48.704;9.474;2023-07-20T02:42:09;3.53;;;1.83;;
11996;SDS011;6058;48.704;9.474;2023-07-20T02:44:36;1.58;;;1.48;;
11996;SDS011;6058;48.704;9.474;2023-07-20T02:47:03;3.53;;;1.75;;
11996;SDS011;6058;48.704;9.474;2023-07-20T02:49:30;2.28;;;1.83;;
11996;SDS011;6058;48.704;9.474;2023-07-20T02:51:57;2.23;;;1.83;;
11996;SDS011;6058;48.704;9.474;2023-07-20T02:54:24;2.45;;;1.67;;
11996;SDS011;6058;48.704;9.474;2023-07-20T02:56:52;2.07;;;1.47;;
11996;SDS011;6058;48.704;9.474;2023-07-20T02:59:20;1.97;;;1.40;;
11996;SDS011;6058;48.704;9.474;2023-07-20T03:01:47;1.83;;;1.60;;
11996;SDS011;6058;48.704;9.474;2023-07-20T03:04:14;4.85;;;1.80;;
11996;SDS011;6058;48.704;9.474;2023-07-20T03:06:42;2.70;;;1.70;;
11996;SDS011;6058;48.704;9.474;2023-07-20T03:09:09;2.30;;;1.60;;
11996;SDS011;6058;48.704;9.474;2023-07-20T03:11:36;3.90;;;1.60;;
11996;SDS011;6058;48.704;9.474;2023-07-20T03:14:03;2.40;;;1.70;;
11996;SDS011;6058;48.704;9.474;2023-07-20T03:16:32;1.33;;;1.23;;
11996;SDS011;6058;48.704;9.474;2023-07-20T03:18:59;3.07;;;1.40;;
11996;SDS011;6058;48.704;9.474;2023-07-20T03:21:26;2.57;;;1.90;;
11996;SDS011;6058;48.704;9.474;2023-07-20T03:23:54;2.07;;;1.73;;
11996;SDS011;6058;48.704;9.474;2023-07-20T03:26:21;1.45;;;1.35;;
11996;SDS011;6058;48.704;9.474;2023-07-20T03:28:48;3.00;;;1.40;;
11996;SDS011;6058;48.704;9.474;2023-07-20T03:31:15;3.77;;;1.60;;
11996;SDS011;6058;48.704;9.474;2023-07-20T03:33:44;3.23;;;1.80;;
11996;SDS011;6058;48.704;9.474;2023-07-20T03:36:11;2.80;;;1.73;;
11996;SDS011;6058;48.704;9.474;2023-07-20T03:38:38;2.13;;;1.92;;
11996;SDS011;6058;48.704;9.474;2023-07-20T03:41:06;2.80;;;1.67;;
11996;SDS011;6058;48.704;9.474;2023-07-20T03:43:34;1.87;;;1.77;;
11996;SDS011;6058;48.704;9.474;2023-07-20T03:46:01;2.20;;;1.43;;
11996;SDS011;6058;48.704;9.474;2023-07-20T03:48:31;1.87;;;1.50;;
11996;SDS011;6058;48.704;9.474;2023-07-20T03:51:00;2.50;;;1.70;;
11996;SDS011;6058;48.704;9.474;2023-07-20T03:53:27;2.10;;;1.50;;
11996;SDS011;6058;48.704;9.474;2023-07-20T03:55:54;1.50;;;1.40;;
11996;SDS011;6058;48.704;9.474;2023-07-20T03:58:21;2.63;;;1.50;;
11996;SDS011;6058;48.704;9.474;2023-07-20T04:00:49;2.60;;;1.60;;
11996;SDS011;6058;48.704;9.474;2023-07-20T04:03:16;2.13;;;1.40;;
11996;SDS011;6058;48.704;9.474;2023-07-20T04:05:44;1.80;;;1.70;;
11996;SDS011;6058;48.704;9.474;2023-07-20T04:08:13;3.97;;;1.93;;
11996;SDS011;6058;48.704;9.474;2023-07-20T04:10:43;2.83;;;1.87;;
11996;SDS011;6058;48.704;9.474;2023-07-20T04:13:10;1.90;;;1.60;;
11996;SDS011;6058;48.704;9.474;2023-07-20T04:15:37;3.30;;;2.10;;
11996;SDS011;6058;48.704;9.474;2023-07-20T04:18:04;2.67;;;1.60;;
11996;SDS011;6058;48.704;9.474;2023-07-20T04:20:32;3.13;;;1.47;;
11996;SDS011;6058;48.704;9.474;2023-07-20T04:22:59;1.83;;;1.73;;
11996;SDS011;6058;48.704;9.474;2023-07-20T04:25:27;1.73;;;1.60;;
11996;SDS011;6058;48.704;9.474;2023-07-20T04:27:55;2.60;;;1.93;;
11996;SDS011;6058;48.704;9.474;2023-07-20T04:30:22;3.20;;;1.50;;
11996;SDS011;6058;48.704;9.474;2023-07-20T04:32:50;2.50;;;1.37;;
11996;SDS011;6058;48.704;9.474;2023-07-20T04:35:17;3.17;;;2.13;;
11996;SDS011;6058;48.704;9.474;2023-07-20T04:37:45;1.93;;;1.50;;
11996;SDS011;6058;48.704;9.474;2023-07-20T04:40:12;2.73;;;1.50;;
11996;SDS011;6058;48.704;9.474;2023-07-20T04:42:41;1.90;;;1.80;;
11996;SDS011;6058;48.704;9.474;2023-07-20T04:45:08;2.03;;;1.73;;
11996;SDS011;6058;48.704;9.474;2023-07-20T04:47:36;1.83;;;1.73;;
11996;SDS011;6058;48.704;9.474;2023-07-20T04:50:03;3.13;;;1.80;;
11996;SDS011;6058;48.704;9.474;2023-07-20T04:52:30;7.27;;;2.20;;
11996;SDS011;6058;48.704;9.474;2023-07-20T04:54:57;2.10;;;1.80;;
11996;SDS011;6058;48.704;9.474;2023-07-20T04:57:24;1.93;;;1.73;;
11996;SDS011;6058;48.704;9.474;2023-07-20T04:59:53;2.50;;;1.90;;
11996;SDS011;6058;48.704;9.474;2023-07-20T05:02:20;1.77;;;1.67;;
11996;SDS011;6058;48.704;9.474;2023-07-20T05:04:47;4.47;;;2.07;;
11996;SDS011;6058;48.704;9.474;2023-07-20T05:07:14;2.73;;;1.57;;
11996;SDS011;6058;48.704;9.474;2023-07-20T05:09:41;3.23;;;2.07;;
11996;SDS011;6058;48.704;9.474;2023-07-20T05:12:08;3.00;;;1.77;;
11996;SDS011;6058;48.704;9.474;2023-07-20T05:14:37;1.80;;;1.70;;
11996;SDS011;6058;48.704;9.474;2023-07-20T05:17:05;1.60;;;1.50;;
11996;SDS011;6058;48.704;9.474;2023-07-20T05:19:32;1.60;;;1.50;;
11996;SDS011;6058;48.704;9.474;2023-07-20T05:21:59;2.80;;;1.97;;
11996;SDS011;6058;48.704;9.474;2023-07-20T05:24:27;2.67;;;1.70;;
11996;SDS011;6058;48.704;9.474;2023-07-20T05:26:54;2.30;;;1.80;;
11996;SDS011;6058;48.704;9.474;2023-07-20T05:29:21;3.03;;;2.10;;
11996;SDS011;6058;48.704;9.474;2023-07-20T05:31:48;1.90;;;1.73;;
11996;SDS011;6058;48.704;9.474;2023-07-20T05:34:16;1.70;;;1.47;;
11996;SDS011;6058;48.704;9.474;2023-07-20T05:36:44;2.03;;;1.90;;
11996;SDS011;6058;48.704;9.474;2023-07-20T05:39:11;1.77;;;1.47;;
11996;SDS011;6058;48.704;9.474;2023-07-20T05:41:38;1.90;;;1.80;;
11996;SDS011;6058;48.704;9.474;2023-07-20T05:44:05;3.20;;;1.67;;
11996;SDS011;6058;48.704;9.474;2023-07-20T05:46:32;2.93;;;1.80;;
11996;SDS011;6058;48.704;9.474;2023-07-20T05:49:00;2.47;;;1.67;;
11996;SDS011;6058;48.704;9.474;2023-07-20T05:51:28;1.67;;;1.57;;
11996;SDS011;6058;48.704;9.474;2023-07-20T05:53:55;3.20;;;1.65;;
11996;SDS011;6058;48.704;9.474;2023-07-20T05:56:22;1.93;;;1.50;;
11996;SDS011;6058;48.704;9.474;2023-07-20T05:58:50;3.13;;;1.70;;
11996;SDS011;6058;48.704;9.474;2023-07-20T06:01:17;2.50;;;1.60;;
11996;SDS011;6058;48.704;9.474;2023-07-20T06:03:44;1.60;;;1.50;;
11996;SDS011;6058;48.704;9.474;2023-07-20T06:06:11;2.00;;;1.70;;
11996;SDS011;6058;48.704;9.474;2023-07-20T06:08:40;3.47;;;2.03;;
11996;SDS011;6058;48.704;9.474;2023-07-20T06:11:07;3.00;;;2.00;;
11996;SDS011;6058;48.704;9.474;2023-07-20T06:13:34;2.10;;;1.60;;
11996;SDS011;6058;48.704;9.474;2023-07-20T06:16:01;1.70;;;1.60;;
11996;SDS011;6058;48.704;9.474;2023-07-20T06:18:28;4.30;;;1.67;;
11996;SDS011;6058;48.704;9.474;2023-07-20T06:20:56;3.87;;;2.00;;
11996;SDS011;6058;48.704;9.474;2023-07-20T06:23:24;4.03;;;1.80;;
11996;SDS011;6058;48.704;9.474;2023-07-20T06:25:52;1.70;;;1.60;;
11996;SDS011;6058;48.704;9.474;2023-07-20T06:28:19;2.03;;;1.83;;
11996;SDS011;6058;48.704;9.474;2023-07-20T06:30:46;3.97;;;1.97;;
11996;SDS011;6058;48.704;9.474;2023-07-20T06:33:13;3.63;;;1.70;;
11996;SDS011;6058;48.704;9.474;2023-07-20T06:35:41;2.53;;;1.75;;
11996;SDS011;6058;48.704;9.474;2023-07-20T06:38:09;1.60;;;1.50;;
11996;SDS011;6058;48.704;9.474;2023-07-20T06:40:36;5.63;;;1.70;;
11996;SDS011;6058;48.704;9.474;2023-07-20T06:43:04;2.13;;;1.93;;
11996;SDS011;6058;48.704;9.474;2023-07-20T06:45:31;4.63;;;1.77;;
11996;SDS011;6058;48.704;9.474;2023-07-20T06:47:58;3.33;;;1.80;;
11996;SDS011;6058;48.704;9.474;2023-07-20T06:50:25;4.37;;;1.60;;
11996;SDS011;6058;48.704;9.474;2023-07-20T06:52:53;2.38;;;1.45;;
11996;SDS011;6058;48.704;9.474;2023-07-20T06:55:20;2.37;;;1.57;;
11996;SDS011;6058;48.704;9.474;2023-07-20T06:57:47;2.28;;;1.75;;
11996;SDS011;6058;48.704;9.474;2023-07-20T07:00:16;1.80;;;1.67;;
11996;SDS011;6058;48.704;9.474;2023-07-20T07:02:43;2.13;;;1.77;;
11996;SDS011;6058;48.704;9.474;2023-07-20T07:05:10;3.20;;;1.70;;
11996;SDS011;6058;48.704;9.474;2023-07-20T07:07:38;4.57;;;1.80;;
11996;SDS011;6058;48.704;9.474;2023-07-20T07:10:06;2.38;;;1.63;;
11996;SDS011;6058;48.704;9.474;2023-07-20T07:12:33;2.58;;;1.50;;
11996;SDS011;6058;48.704;9.474;2023-07-20T07:15:01;2.10;;;1.40;;
11996;SDS011;6058;48.704;9.474;2023-07-20T07:17:29;3.67;;;1.90;;
11996;SDS011;6058;48.704;9.474;2023-07-20T07:19:57;3.72;;;1.88;;
11996;SDS011;6058;48.704;9.474;2023-07-20T07:24:53;2.42;;;1.50;;
11996;SDS011;6058;48.704;9.474;2023-07-20T07:27:20;3.33;;;1.50;;
11996;SDS011;6058;48.704;9.474;2023-07-20T07:29:47;2.28;;;1.45;;
11996;SDS011;6058;48.704;9.474;2023-07-20T07:32:14;4.65;;;1.50;;
11996;SDS011;6058;48.704;9.474;2023-07-20T07:34:43;2.20;;;1.52;;
11996;SDS011;6058;48.704;9.474;2023-07-20T07:37:11;2.63;;;1.70;;
11996;SDS011;6058;48.704;9.474;2023-07-20T07:39:38;2.85;;;1.67;;
11996;SDS011;6058;48.704;9.474;2023-07-20T07:42:07;2.25;;;1.80;;
11996;SDS011;6058;48.704;9.474;2023-07-20T07:44:34;2.13;;;1.60;;
11996;SDS011;6058;48.704;9.474;2023-07-20T07:47:01;5.07;;;1.83;;
11996;SDS011;6058;48.704;9.474;2023-07-20T07:49:28;6.35;;;1.95;;
11996;SDS011;6058;48.704;9.474;2023-07-20T07:51:57;3.80;;;1.58;;
11996;SDS011;6058;48.704;9.474;2023-07-20T07:54:27;2.78;;;1.67;;
11996;SDS011;6058;48.704;9.474;2023-07-20T07:57:01;1.85;;;1.40;;
11996;SDS011;6058;48.704;9.474;2023-07-20T07:59:28;1.90;;;1.40;;
11996;SDS011;6058;48.704;9.474;2023-07-20T08:02:00;4.38;;;1.70;;
11996;SDS011;6058;48.704;9.474;2023-07-20T08:04:27;3.60;;;1.30;;
11996;SDS011;6058;48.704;9.474;2023-07-20T08:06:54;4.65;;;1.50;;
11996;SDS011;6058;48.704;9.474;2023-07-20T08:09:30;2.88;;;1.70;;
11996;SDS011;6058;48.704;9.474;2023-07-20T08:11:57;2.20;;;1.35;;
11996;SDS011;6058;48.704;9.474;2023-07-20T08:14:25;3.83;;;1.50;;
11996;SDS011;6058;48.704;9.474;2023-07-20T08:16:52;1.92;;;1.50;;
11996;SDS011;6058;48.704;9.474;2023-07-20T08:19:20;4.60;;;1.60;;
11996;SDS011;6058;48.704;9.474;2023-07-20T08:21:47;2.38;;;1.60;;
11996;SDS011;6058;48.704;9.474;2023-07-20T08:24:14;5.13;;;1.40;;
11996;SDS011;6058;48.704;9.474;2023-07-20T08:26:42;1.80;;;1.50;;
11996;SDS011;6058;48.704;9.474;2023-07-20T08:29:10;3.08;;;1.50;;
11996;SDS011;6058;48.704;9.474;2023-07-20T08:31:37;1.92;;;1.35;;
11996;SDS011;6058;48.704;9.474;2023-07-20T08:34:04;3.17;;;1.60;;
11996;SDS011;6058;48.704;9.474;2023-07-20T08:36:31;2.67;;;1.42;;
11996;SDS011;6058;48.704;9.474;2023-07-20T08:38:58;1.98;;;1.55;;
11996;SDS011;6058;48.704;9.474;2023-07-20T08:41:27;2.30;;;1.40;;
11996;SDS011;6058;48.704;9.474;2023-07-20T08:43:56;2.33;;;1.30;;
11996;SDS011;6058;48.704;9.474;2023-07-20T08:46:23;3.08;;;1.48;;
11996;SDS011;6058;48.704;9.474;2023-07-20T08:48:52;1.90;;;1.63;;
11996;SDS011;6058;48.704;9.474;2023-07-20T08:51:19;1.65;;;1.30;;
11996;SDS011;6058;48.704;9.474;2023-07-20T08:53:48;2.95;;;1.77;;
11996;SDS011;6058;48.704;9.474;2023-07-20T08:56:17;1.67;;;1.55;;
11996;SDS011;6058;48.704;9.474;2023-07-20T08:58:44;1.50;;;1.40;;
11996;SDS011;6058;48.704;9.474;2023-07-20T09:01:14;1.33;;;1.23;;
11996;SDS011;6058;48.704;9.474;2023-07-20T09:03:41;2.47;;;2.00;;
11996;SDS011;6058;48.704;9.474;2023-07-20T09:06:09;3.10;;;1.98;;
11996;SDS011;6058;48.704;9.474;2023-07-20T09:08:37;3.50;;;1.30;;
11996;SDS011;6058;48.704;9.474;2023-07-20T09:11:05;1.63;;;1.45;;
11996;SDS011;6058;48.704;9.474;2023-07-20T09:13:32;3.80;;;1.75;;
11996;SDS011;6058;48.704;9.474;2023-07-20T09:15:59;2.25;;;1.55;;
11996;SDS011;6058;48.704;9.474;2023-07-20T09:18:29;3.97;;;1.70;;
11996;SDS011;6058;48.704;9.474;2023-07-20T09:21:00;2.67;;;1.88;;
11996;SDS011;6058;48.704;9.474;2023-07-20T09:23:31;1.70;;;1.52;;
11996;SDS011;6058;48.704;9.474;2023-07-20T09:25:59;1.63;;;1.42;;
11996;SDS011;6058;48.704;9.474;2023-07-20T09:28:41;1.70;;;1.20;;
11996;SDS011;6058;48.704;9.474;2023-07-20T09:31:15;1.38;;;1.17;;
11996;SDS011;6058;48.704;9.474;2023-07-20T09:33:44;2.15;;;1.40;;
11996;SDS011;6058;48.704;9.474;2023-07-20T09:36:11;1.75;;;1.35;;
11996;SDS011;6058;48.704;9.474;2023-07-20T09:38:38;2.08;;;1.65;;
11996;SDS011;6058;48.704;9.474;2023-07-20T09:41:05;2.55;;;1.40;;
11996;SDS011;6058;48.704;9.474;2023-07-20T09:43:33;3.58;;;1.45;;
11996;SDS011;6058;48.704;9.474;2023-07-20T09:45:59;3.50;;;1.40;;
11996;SDS011;6058;48.704;9.474;2023-07-20T09:48:27;3.33;;;1.73;;
11996;SDS011;6058;48.704;9.474;2023-07-20T09:50:55;2.03;;;1.70;;
11996;SDS011;6058;48.704;9.474;2023-07-20T09:53:24;1.60;;;1.50;;
11996;SDS011;6058;48.704;9.474;2023-07-20T09:55:52;1.80;;;1.30;;
11996;SDS011;6058;48.704;9.474;2023-07-20T09:58:21;1.30;;;1.30;;
11996;SDS011;6058;48.704;9.474;2023-07-20T10:00:48;3.92;;;1.55;;
11996;SDS011;6058;48.704;9.474;2023-07-20T10:03:19;1.63;;;1.50;;
11996;SDS011;6058;48.704;9.474;2023-07-20T10:05:49;7.47;;;1.90;;
11996;SDS011;6058;48.704;9.474;2023-07-20T10:08:20;2.08;;;1.48;;
11996;SDS011;6058;48.704;9.474;2023-07-20T10:10:47;1.67;;;1.50;;
11996;SDS011;6058;48.704;9.474;2023-07-20T10:13:17;2.42;;;1.42;;
11996;SDS011;6058;48.704;9.474;2023-07-20T10:15:46;5.35;;;1.88;;
11996;SDS011;6058;48.704;9.474;2023-07-20T10:18:14;2.80;;;1.45;;
11996;SDS011;6058;48.704;9.474;2023-07-20T10:20:45;1.80;;;1.42;;
11996;SDS011;6058;48.704;9.474;2023-07-20T10:23:13;2.45;;;1.77;;
11996;SDS011;6058;48.704;9.474;2023-07-20T10:25:41;2.03;;;1.70;;
11996;SDS011;6058;48.704;9.474;2023-07-20T10:28:08;3.28;;;1.70;;
11996;SDS011;6058;48.704;9.474;2023-07-20T10:30:43;1.67;;;1.50;;
11996;SDS011;6058;48.704;9.474;2023-07-20T10:33:10;1.40;;;1.30;;
11996;SDS011;6058;48.704;9.474;2023-07-20T10:35:50;1.80;;;1.48;;
11996;SDS011;6058;48.704;9.474;2023-07-20T10:38:18;1.35;;;1.25;;
11996;SDS011;6058;48.704;9.474;2023-07-20T10:40:54;1.52;;;1.42;;
11996;SDS011;6058;48.704;9.474;2023-07-20T10:43:22;1.73;;;1.63;;
11996;SDS011;6058;48.704;9.474;2023-07-20T10:45:50;4.68;;;1.95;;
11996;SDS011;6058;48.704;9.474;2023-07-20T10:48:18;2.05;;;1.67;;
11996;SDS011;6058;48.704;9.474;2023-07-20T10:50:45;3.13;;;1.63;;
11996;SDS011;6058;48.704;9.474;2023-07-20T10:53:21;2.03;;;1.40;;
11996;SDS011;6058;48.704;9.474;2023-07-20T10:55:48;1.80;;;1.52;;
11996;SDS011;6058;48.704;9.474;2023-07-20T10:58:17;1.80;;;1.48;;
11996;SDS011;6058;48.704;9.474;2023-07-20T11:00:59;2.40;;;1.33;;
11996;SDS011;6058;48.704;9.474;2023-07-20T11:03:26;2.80;;;1.30;;
11996;SDS011;6058;48.704;9.474;2023-07-20T11:05:55;2.70;;;1.42;;
11996;SDS011;6058;48.704;9.474;2023-07-20T11:11:20;2.92;;;1.67;;
11996;SDS011;6058;48.704;9.474;2023-07-20T11:13:56;2.38;;;1.52;;
11996;SDS011;6058;48.704;9.474;2023-07-20T11:19:05;1.27;;;1.20;;
11996;SDS011;6058;48.704;9.474;2023-07-20T11:21:37;2.92;;;1.45;;
11996;SDS011;6058;48.704;9.474;2023-07-20T11:24:05;2.50;;;1.38;;
11996;SDS011;6058;48.704;9.474;2023-07-20T11:26:41;4.15;;;1.50;;
11996;SDS011;6058;48.704;9.474;2023-07-20T11:29:10;2.63;;;1.73;;
11996;SDS011;6058;48.704;9.474;2023-07-20T11:31:38;1.83;;;1.60;;
11996;SDS011;6058;48.704;9.474;2023-07-20T11:34:06;2.35;;;1.17;;
11996;SDS011;6058;48.704;9.474;2023-07-20T11:36:33;3.33;;;1.38;;
11996;SDS011;6058;48.704;9.474;2023-07-20T11:39:00;1.95;;;1.63;;
11996;SDS011;6058;48.704;9.474;2023-07-20T11:41:29;3.10;;;1.45;;
11996;SDS011;6058;48.704;9.474;2023-07-20T11:43:57;3.65;;;1.35;;
11996;SDS011;6058;48.704;9.474;2023-07-20T11:46:25;4.32;;;1.30;;
11996;SDS011;6058;48.704;9.474;2023-07-20T11:48:57;2.13;;;1.20;;
11996;SDS011;6058;48.704;9.474;2023-07-20T11:51:26;1.58;;;1.42;;
11996;SDS011;6058;48.704;9.474;2023-07-20T11:54:00;1.85;;;1.40;;
11996;SDS011;6058;48.704;9.474;2023-07-20T11:56:28;1.92;;;1.38;;
11996;SDS011;6058;48.704;9.474;2023-07-20T11:58:56;1.45;;;1.10;;
11996;SDS011;6058;48.704;9.474;2023-07-20T12:01:26;1.67;;;1.13;;
11996;SDS011;6058;48.704;9.474;2023-07-20T12:03:54;1.23;;;1.20;;
11996;SDS011;6058;48.704;9.474;2023-07-20T12:06:23;1.13;;;1.02;;
11996;SDS011;6058;48.704;9.474;2023-07-20T12:08:50;2.60;;;1.10;;
11996;SDS011;6058;48.704;9.474;2023-07-20T12:11:30;1.63;;;1.10;;
11996;SDS011;6058;48.704;9.474;2023-07-20T12:13:57;1.45;;;1.30;;
11996;SDS011;6058;48.704;9.474;2023-07-20T12:16:28;1.45;;;1.35;;
11996;SDS011;6058;48.704;9.474;2023-07-20T12:19:04;1.77;;;1.38;;
11996;SDS011;6058;48.704;9.474;2023-07-20T12:21:32;1.20;;;1.10;;
11996;SDS011;6058;48.704;9.474;2023-07-20T12:24:00;8.02;;;1.17;;
11996;SDS011;6058;48.704;9.474;2023-07-20T12:26:28;1.27;;;1.15;;
11996;SDS011;6058;48.704;9.474;2023-07-20T12:28:56;2.08;;;1.17;;
11996;SDS011;6058;48.704;9.474;2023-07-20T12:31:23;2.33;;;1.10;;
11996;SDS011;6058;48.704;9.474;2023-07-20T12:33:51;0.98;;;0.85;;
11996;SDS011;6058;48.704;9.474;2023-07-20T12:36:18;1.27;;;1.17;;
11996;SDS011;6058;48.704;9.474;2023-07-20T12:38:45;1.38;;;1.02;;
11996;SDS011;6058;48.704;9.474;2023-07-20T12:41:13;3.33;;;1.42;;
11996;SDS011;6058;48.704;9.474;2023-07-20T12:43:40;1.13;;;1.00;;
11996;SDS011;6058;48.704;9.474;2023-07-20T12:46:07;1.48;;;1.20;;
11996;SDS011;6058;48.704;9.474;2023-07-20T12:48:35;1.85;;;1.10;;
11996;SDS011;6058;48.704;9.474;2023-07-20T12:51:04;2.65;;;0.98;;
11996;SDS011;6058;48.704;9.474;2023-07-20T12:53:33;1.10;;;1.00;;
11996;SDS011;6058;48.704;9.474;2023-07-20T12:56:00;1.00;;;1.00;;
11996;SDS011;6058;48.704;9.474;2023-07-20T12:58:28;1.35;;;1.25;;
11996;SDS011;6058;48.704;9.474;2023-07-20T13:00:55;1.52;;;0.90;;
11996;SDS011;6058;48.704;9.474;2023-07-20T13:03:23;1.15;;;1.10;;
11996;SDS011;6058;48.704;9.474;2023-07-20T13:05:50;3.70;;;1.10;;
11996;SDS011;6058;48.704;9.474;2023-07-20T13:08:18;0.93;;;0.93;;
11996;SDS011;6058;48.704;9.474;2023-07-20T13:10:45;1.15;;;0.80;;
11996;SDS011;6058;48.704;9.474;2023-07-20T13:13:13;4.43;;;1.10;;
11996;SDS011;6058;48.704;9.474;2023-07-20T13:15:42;2.05;;;1.10;;
11996;SDS011;6058;48.704;9.474;2023-07-20T13:18:11;2.53;;;1.10;;
11996;SDS011;6058;48.704;9.474;2023-07-20T13:20:38;2.78;;;1.23;;
11996;SDS011;6058;48.704;9.474;2023-07-20T13:23:05;2.20;;;1.27;;
11996;SDS011;6058;48.704;9.474;2023-07-20T13:25:34;5.35;;;1.20;;
11996;SDS011;6058;48.704;9.474;2023-07-20T13:28:01;1.92;;;0.98;;
11996;SDS011;6058;48.704;9.474;2023-07-20T13:30:28;3.60;;;1.23;;
11996;SDS011;6058;48.704;9.474;2023-07-20T13:32:55;1.35;;;1.25;;
11996;SDS011;6058;48.704;9.474;2023-07-20T13:35:22;2.05;;;1.20;;
11996;SDS011;6058;48.704;9.474;2023-07-20T13:37:50;1.58;;;1.40;;
11996;SDS011;6058;48.704;9.474;2023-07-20T13:40:17;1.95;;;1.40;;
11996;SDS011;6058;48.704;9.474;2023-07-20T13:42:46;3.45;;;0.98;;
11996;SDS011;6058;48.704;9.474;2023-07-20T13:45:13;1.63;;;1.20;;
11996;SDS011;6058;48.704;9.474;2023-07-20T13:47:40;1.75;;;0.95;;
11996;SDS011;6058;48.704;9.474;2023-07-20T13:50:07;0.95;;;0.85;;
11996;SDS011;6058;48.704;9.474;2023-07-20T13:52:35;1.17;;;1.10;;
11996;SDS011;6058;48.704;9.474;2023-07-20T13:55:03;1.25;;;1.20;;
11996;SDS011;6058;48.704;9.474;2023-07-20T13:57:30;1.20;;;1.10;;
11996;SDS011;6058;48.704;9.474;2023-07-20T13:59:59;3.53;;;1.10;;
11996;SDS011;6058;48.704;9.474;2023-07-20T14:02:27;1.65;;;1.05;;
11996;SDS011;6058;48.704;9.474;2023-07-20T14:04:54;0.90;;;0.88;;
11996;SDS011;6058;48.704;9.474;2023-07-20T14:07:22;1.30;;;1.20;;
11996;SDS011;6058;48.704;9.474;2023-07-20T14:09:49;2.97;;;1.30;;
11996;SDS011;6058;48.704;9.474;2023-07-20T14:12:16;2.13;;;1.35;;
11996;SDS011;6058;48.704;9.474;2023-07-20T14:14:43;2.03;;;1.30;;
11996;SDS011;6058;48.704;9.474;2023-07-20T14:17:11;1.75;;;1.20;;
11996;SDS011;6058;48.704;9.474;2023-07-20T14:19:46;1.05;;;0.98;;
11996;SDS011;6058;48.704;9.474;2023-07-20T14:22:15;2.05;;;1.00;;
11996;SDS011;6058;48.704;9.474;2023-07-20T14:24:42;1.58;;;1.20;;
11996;SDS011;6058;48.704;9.474;2023-07-20T14:27:09;1.63;;;1.10;;
11996;SDS011;6058;48.704;9.474;2023-07-20T14:29:37;1.33;;;1.17;;
11996;SDS011;6058;48.704;9.474;2023-07-20T14:32:04;1.50;;;1.40;;
11996;SDS011;6058;48.704;9.474;2023-07-20T14:34:34;1.25;;;1.05;;
11996;SDS011;6058;48.704;9.474;2023-07-20T14:37:01;0.90;;;0.90;;
11996;SDS011;6058;48.704;9.474;2023-07-20T14:39:29;1.23;;;1.02;;
11996;SDS011;6058;48.704;9.474;2023-07-20T14:41:56;3.60;;;1.00;;
11996;SDS011;6058;48.704;9.474;2023-07-20T14:44:25;1.50;;;1.40;;
11996;SDS011;6058;48.704;9.474;2023-07-20T14:46:52;1.55;;;1.20;;
11996;SDS011;6058;48.704;9.474;2023-07-20T14:49:20;1.45;;;1.10;;
11996;SDS011;6058;48.704;9.474;2023-07-20T14:51:49;0.90;;;0.90;;
11996;SDS011;6058;48.704;9.474;2023-07-20T14:54:18;0.90;;;0.90;;
11996;SDS011;6058;48.704;9.474;2023-07-20T14:56:48;1.20;;;1.10;;
11996;SDS011;6058;48.704;9.474;2023-07-20T14:59:16;1.00;;;1.00;;
11996;SDS011;6058;48.704;9.474;2023-07-20T15:01:44;1.30;;;1.00;;
11996;SDS011;6058;48.704;9.474;2023-07-20T15:04:12;5.20;;;1.50;;
11996;SDS011;6058;48.704;9.474;2023-07-20T15:06:39;2.30;;;1.40;;
11996;SDS011;6058;48.704;9.474;2023-07-20T15:09:08;1.10;;;1.00;;
11996;SDS011;6058;48.704;9.474;2023-07-20T15:11:36;1.88;;;1.10;;
11996;SDS011;6058;48.704;9.474;2023-07-20T15:14:03;0.90;;;0.82;;